Charlevoix, MI (49711)

8:10 AM EDT on September 01, 2015 (GMT -0400)
1.5 W Ironton | | Change Station
CLOSE
Current Station
Personal Weather Station
Location: Charlevoix, MI
Elevation: 750 ft
Nearby Weather Stations

Elev 750 ft 45.26 °N, 85.22 °W | Updated 6 seconds ago

Clear
Clear
64.7 °F
Feels Like 64.7 °F
N
0.0
Wind Variable Wind from South
Gusts 2.0 mph

Today
High -- | Low -- °F
--% Chance of Precip.
Yesterday
High -- | Low -- °F
Precip. -- in
7:02 AM 8:18 PM
Waning Gibbous, 89% visible
Pressure 30.06 in
Visibility 3.0 miles
Clouds Clear
Dew Point 62 °F
Humidity 90%
Rainfall 0.00 in
Snow Depth Not available.
UV 0 out of 12
Pollen 11.00 out of 12
Air Quality Not available.
Flu Activity Not available.
METAR KCVX 011154Z AUTO 12003KT 3SM BR CLR 19/18 A3006 RMK AO2 T01850182
Pressure 30.06 in
Visibility 3.0 miles
Clouds Clear
Dew Point 62 °F
Humidity 90%
Rainfall 0.00 in
Snow Depth Not available.
UV 0 out of 12
Pollen 11.00 out of 12
Air Quality Not available.
Flu Activity Not available.
METAR KCVX 011154Z AUTO 12003KT 3SM BR CLR 19/18 A3006 RMK AO2 T01850182
Nowcast | as of 8:00 am EDT on September 1, 2015

At 9 am...mostly clear. Areas of fog. Temperature 69. Southwest winds 8 mph. At 11 am...partly cloudy. Temperature 73. Southwest winds 9 mph. At 1 PM...partly cloudy. Temperature 77. Southwest winds 9 mph. At 3 PM...partly cloudy. Temperature 80. Southwest winds 9 mph.

×

10-Day Weather Forecast

×

Almanac

Astronomy

Sep. 01, 2015 Rise Set
Actual Time
Civil Twilight
Nautical Twilight
Astronomical Twilight
Moon
Length of Visible Light
Length of Day
Tomorrow will be .
, % of the Moon is Illuminated

Today's Extremes

State Highs State Lows

Community

WunderPhotos

Upload Photos

1,851,508 photos uploaded!

WunderBlogs® & News

Nearby

Air Quality

  Air Quality AQ Index Pollutant
Not available.

Snow Depth

Station Depth Elevation

Earthquake Activity

City Distance Mag. Time & Date
Minimum magnitude displayed is 2.5.

Coastal Water Temperatures

Place Temperature

Stations

Nearby Weather Stations

Station Location Temp. Windchill Dew Point Humidity Wind Precip. Elev Updated Type